createdAt,value
2023-02-27T00:04:14.934Z,0.11
2023-02-27T00:09:18.052Z,0.10
2023-02-27T00:14:21.157Z,0.12
2023-02-27T00:19:24.157Z,0.10
2023-02-27T00:24:27.258Z,0.09
2023-02-27T00:29:30.360Z,0.11
2023-02-27T00:34:33.567Z,0.11
2023-02-27T00:39:36.776Z,0.09
2023-02-27T00:44:41.110Z,0.07
2023-02-27T00:49:44.155Z,0.05
2023-02-27T00:54:47.222Z,0.03
2023-02-27T00:59:50.322Z,0.03
2023-02-27T01:04:53.337Z,0.03
2023-02-27T01:09:56.639Z,0.02
2023-02-27T01:14:59.544Z,0.00
2023-02-27T01:20:04.092Z,-0.01
2023-02-27T01:25:08.199Z,-0.02
2023-02-27T01:30:12.848Z,-0.03
2023-02-27T01:35:16.373Z,-0.06
2023-02-27T01:40:19.833Z,-0.09
2023-02-27T01:45:35.875Z,-0.13
2023-02-27T01:50:45.855Z,-0.17
2023-02-27T01:55:49.988Z,-0.21
2023-02-27T02:00:53.668Z,-0.24
2023-02-27T02:05:58.680Z,-0.26
2023-02-27T02:11:03.618Z,-0.26
2023-02-27T02:16:38.167Z,-0.26
2023-02-27T02:21:53.435Z,-0.25
2023-02-27T02:27:21.118Z,-0.26
2023-02-27T02:32:43.172Z,-0.25
2023-02-27T02:38:24.577Z,-0.24
2023-02-27T02:43:46.730Z,-0.23
2023-02-27T02:49:14.099Z,-0.23
2023-02-27T02:54:31.232Z,-0.23
2023-02-27T02:59:43.044Z,-0.23
2023-02-27T03:04:59.244Z,-0.22
2023-02-27T03:10:27.755Z,-0.21
2023-02-27T03:15:40.001Z,-0.21
2023-02-27T03:20:49.709Z,-0.21
2023-02-27T03:25:54.564Z,-0.21
2023-02-27T03:31:10.150Z,-0.23
2023-02-27T03:36:49.427Z,-0.25
2023-02-27T03:42:22.636Z,-0.29
2023-02-27T03:47:26.064Z,-0.34
2023-02-27T03:52:30.588Z,-0.40
2023-02-27T03:57:36.772Z,-0.47
2023-02-27T04:02:42.156Z,-0.52
2023-02-27T04:07:57.109Z,-0.58
2023-02-27T04:13:41.894Z,-0.64
2023-02-27T04:19:04.758Z,-0.71
2023-02-27T04:24:25.989Z,-0.77
2023-02-27T04:29:51.010Z,-0.84
2023-02-27T04:34:59.856Z,-0.89
2023-02-27T04:40:10.654Z,-0.96
2023-02-27T04:45:18.870Z,-1.06
2023-02-27T04:50:37.436Z,-1.16
2023-02-27T04:55:47.808Z,-1.27
2023-02-27T05:00:57.288Z,-1.32
2023-02-27T05:06:01.920Z,-1.33
2023-02-27T05:11:07.885Z,-1.34
2023-02-27T05:16:33.479Z,-1.36
2023-02-27T05:21:59.761Z,-1.37
2023-02-27T05:27:14.846Z,-1.40
2023-02-27T05:32:49.904Z,-1.43
2023-02-27T05:38:21.076Z,-1.48
2023-02-27T05:43:31.105Z,-1.54
2023-02-27T05:48:43.139Z,-1.59
2023-02-27T05:53:53.310Z,-1.61
2023-02-27T05:59:24.272Z,-1.58
2023-02-27T06:04:27.590Z,-1.51
2023-02-27T06:09:30.892Z,-1.45
2023-02-27T06:14:33.897Z,-1.38
2023-02-27T06:19:36.903Z,-1.22
2023-02-27T06:24:40.006Z,-1.00
2023-02-27T06:29:43.010Z,-0.80
2023-02-27T06:34:46.211Z,-0.59
2023-02-27T06:39:49.418Z,-0.39
2023-02-27T06:44:52.628Z,-0.17
2023-02-27T06:49:55.627Z,0.06
2023-02-27T06:54:59.758Z,0.30
2023-02-27T07:00:05.472Z,0.58
2023-02-27T07:05:12.232Z,1.09
2023-02-27T07:10:16.443Z,1.77
2023-02-27T07:15:19.552Z,2.03
2023-02-27T07:20:22.553Z,2.26
2023-02-27T07:25:25.668Z,2.46
2023-02-27T07:30:30.924Z,2.67
2023-02-27T07:35:34.330Z,2.83
2023-02-27T07:40:37.744Z,2.92
2023-02-27T07:45:41.162Z,3.20
2023-02-27T07:50:44.469Z,3.34
2023-02-27T07:55:47.879Z,3.38
2023-02-27T08:00:53.754Z,3.38
2023-02-27T08:05:56.968Z,3.31
2023-02-27T08:10:59.963Z,3.29
2023-02-27T08:16:03.207Z,3.33
2023-02-27T08:21:06.802Z,3.55
2023-02-27T08:26:09.890Z,3.78
2023-02-27T08:31:13.572Z,4.13
2023-02-27T08:36:17.023Z,4.28
2023-02-27T08:41:20.346Z,4.79
2023-02-27T08:46:23.443Z,5.66
2023-02-27T08:51:27.121Z,8.39
2023-02-27T08:56:30.873Z,12.32
2023-02-27T09:01:34.895Z,15.87
2023-02-27T09:06:38.314Z,18.80
2023-02-27T09:11:41.732Z,20.07
2023-02-27T09:16:45.601Z,20.44
2023-02-27T09:21:49.167Z,20.70
2023-02-27T09:26:52.784Z,21.29
2023-02-27T09:31:56.232Z,20.02
2023-02-27T09:37:01.523Z,18.46
2023-02-27T09:42:17.770Z,16.36
2023-02-27T09:47:28.888Z,15.38
2023-02-27T09:52:35.972Z,16.57
2023-02-27T09:57:52.278Z,19.16
2023-02-27T10:03:23.197Z,19.11
2023-02-27T10:08:38.426Z,17.47
2023-02-27T10:13:50.029Z,17.19
2023-02-27T10:18:58.569Z,15.92
2023-02-27T10:24:27.626Z,14.93
2023-02-27T10:29:43.074Z,12.05
2023-02-27T10:34:54.783Z,9.77
2023-02-27T10:40:06.343Z,8.02
2023-02-27T10:45:17.706Z,6.99
2023-02-27T10:50:25.602Z,6.42
2023-02-27T10:55:35.976Z,5.95
2023-02-27T11:00:39.482Z,5.47
2023-02-27T11:05:43.205Z,5.13
2023-02-27T11:10:57.380Z,5.17
2023-02-27T11:16:18.691Z,5.33
2023-02-27T11:21:25.871Z,5.17
2023-02-27T11:26:36.690Z,4.82
2023-02-27T11:31:44.234Z,4.78
2023-02-27T11:36:51.196Z,4.62
2023-02-27T11:41:56.974Z,4.69
2023-02-27T11:47:34.246Z,4.83
2023-02-27T11:52:57.448Z,4.88
2023-02-27T11:58:22.474Z,5.04
2023-02-27T12:03:48.438Z,5.13
2023-02-27T12:08:57.130Z,5.15
2023-02-27T12:14:18.470Z,5.11
2023-02-27T12:19:34.431Z,5.09
2023-02-27T12:24:53.984Z,5.09
2023-02-27T12:30:17.272Z,4.84
2023-02-27T12:35:28.425Z,4.50
2023-02-27T12:40:38.540Z,4.40
2023-02-27T12:45:42.418Z,4.47
2023-02-27T12:50:48.814Z,4.58
2023-02-27T12:56:20.911Z,4.43
2023-02-27T13:01:41.620Z,4.22
2023-02-27T13:07:02.959Z,4.21
2023-02-27T13:12:18.602Z,4.29
2023-02-27T13:17:28.474Z,4.33
2023-02-27T13:22:40.647Z,4.37
2023-02-27T13:27:53.067Z,4.40
2023-02-27T13:33:26.129Z,4.41
2023-02-27T13:38:54.888Z,4.34
2023-02-27T13:44:20.125Z,4.27
2023-02-27T13:49:29.678Z,4.19
2023-02-27T13:54:40.187Z,4.03
2023-02-27T14:00:01.898Z,3.95
2023-02-27T14:05:08.896Z,3.93
2023-02-27T14:10:25.408Z,3.96
2023-02-27T14:15:32.403Z,3.88
2023-02-27T14:20:36.221Z,3.83
2023-02-27T14:26:01.870Z,3.83
2023-02-27T14:31:32.709Z,3.84
2023-02-27T14:36:44.527Z,3.77
2023-02-27T14:42:27.093Z,3.60
2023-02-27T14:47:36.197Z,3.52
2023-02-27T14:52:44.119Z,3.50
2023-02-27T14:58:17.544Z,3.47
2023-02-27T15:03:26.661Z,3.38
2023-02-27T15:08:35.011Z,3.30
2023-02-27T15:13:40.064Z,3.25
2023-02-27T15:18:46.042Z,3.21
2023-02-27T15:24:00.511Z,3.18
2023-02-27T15:29:08.839Z,3.16
2023-02-27T15:34:14.929Z,3.13
2023-02-27T15:39:22.037Z,3.02
2023-02-27T15:44:30.541Z,2.84
2023-02-27T15:49:34.161Z,2.66
2023-02-27T15:54:37.165Z,2.47
2023-02-27T15:59:43.439Z,2.29
2023-02-27T16:04:47.583Z,2.10
2023-02-27T16:09:58.875Z,1.92
2023-02-27T16:15:27.463Z,1.69
2023-02-27T16:20:38.963Z,1.47
2023-02-27T16:25:59.174Z,1.26
2023-02-27T16:31:03.103Z,1.03
2023-02-27T16:36:21.907Z,0.83
2023-02-27T16:41:25.870Z,0.61
2023-02-27T16:46:31.495Z,0.39
2023-02-27T16:51:35.869Z,0.21
2023-02-27T16:56:40.977Z,0.06
2023-02-27T17:01:45.385Z,-0.05
2023-02-27T17:06:49.829Z,-0.12
2023-02-27T17:11:53.547Z,-0.19
2023-02-27T17:16:58.567Z,-0.24
2023-02-27T17:22:02.624Z,-0.26
2023-02-27T17:27:06.519Z,-0.28
2023-02-27T17:32:11.920Z,-0.32
2023-02-27T17:37:15.729Z,-0.38
2023-02-27T17:42:19.763Z,-0.47
2023-02-27T17:47:23.279Z,-0.58
2023-02-27T17:52:27.608Z,-0.70
2023-02-27T17:57:31.234Z,-0.83
2023-02-27T18:02:36.320Z,-0.93
2023-02-27T18:07:40.607Z,-1.05
2023-02-27T18:12:43.934Z,-1.17
2023-02-27T18:17:47.433Z,-1.30
2023-02-27T18:22:50.951Z,-1.42
2023-02-27T18:27:58.437Z,-1.53
2023-02-27T18:33:01.977Z,-1.63
2023-02-27T18:38:05.180Z,-1.74
2023-02-27T18:43:11.083Z,-1.84
2023-02-27T18:48:17.738Z,-1.94
2023-02-27T18:53:21.874Z,-2.03
2023-02-27T18:58:26.100Z,-2.14
2023-02-27T19:03:30.197Z,-2.24
2023-02-27T19:08:34.835Z,-2.34
2023-02-27T19:13:39.103Z,-2.44
2023-02-27T19:18:43.247Z,-2.53
2023-02-27T19:23:48.557Z,-2.59
2023-02-27T19:28:54.548Z,-2.66
2023-02-27T19:33:58.381Z,-2.73
2023-02-27T19:39:03.491Z,-2.78
2023-02-27T19:44:08.077Z,-2.78
2023-02-27T19:49:11.590Z,-2.74
2023-02-27T19:54:17.144Z,-2.74
2023-02-27T19:59:25.776Z,-2.79
2023-02-27T20:04:30.227Z,-2.84
2023-02-27T20:09:34.462Z,-2.84
2023-02-27T20:14:38.279Z,-2.86
2023-02-27T20:19:42.417Z,-2.92
2023-02-27T20:24:46.618Z,-2.99
2023-02-27T20:29:57.536Z,-3.06
2023-02-27T20:35:01.144Z,-3.15
2023-02-27T20:40:09.169Z,-3.24
2023-02-27T20:45:15.333Z,-3.32
2023-02-27T20:50:19.998Z,-3.40
2023-02-27T20:55:25.038Z,-3.42
2023-02-27T21:00:33.482Z,-3.41
2023-02-27T21:05:37.805Z,-3.44
2023-02-27T21:10:41.833Z,-3.45
2023-02-27T21:15:45.911Z,-3.49
2023-02-27T21:20:49.068Z,-3.57
2023-02-27T21:25:52.801Z,-3.65
2023-02-27T21:30:55.908Z,-3.72
2023-02-27T21:35:59.232Z,-3.82
2023-02-27T21:41:10.414Z,-3.90
2023-02-27T21:46:14.974Z,-3.95
2023-02-27T21:51:33.013Z,-3.97
2023-02-27T21:56:41.363Z,-3.97
2023-02-27T22:01:47.680Z,-3.96
2023-02-27T22:06:52.352Z,-3.98
2023-02-27T22:11:55.762Z,-4.02
2023-02-27T22:16:58.966Z,-4.08
2023-02-27T22:22:02.079Z,-4.15
2023-02-27T22:27:06.048Z,-4.22
2023-02-27T22:32:09.119Z,-4.28
2023-02-27T22:37:15.377Z,-4.34
2023-02-27T22:42:18.393Z,-4.39
2023-02-27T22:47:21.693Z,-4.45
2023-02-27T22:52:24.911Z,-4.50
2023-02-27T22:57:28.107Z,-4.55
2023-02-27T23:02:33.673Z,-4.59
2023-02-27T23:07:36.886Z,-4.64
2023-02-27T23:12:39.886Z,-4.69
2023-02-27T23:17:52.941Z,-4.75
2023-02-27T23:23:01.145Z,-4.83
2023-02-27T23:28:05.583Z,-4.89
2023-02-27T23:33:08.589Z,-4.95
2023-02-27T23:38:11.894Z,-5.01
2023-02-27T23:43:15.511Z,-5.07
2023-02-27T23:48:21.995Z,-5.05
2023-02-27T23:53:25.102Z,-5.01
2023-02-27T23:58:28.006Z,-5.04
